createdAt,value
2022-08-10T00:01:51.303Z,19.88
2022-08-10T00:04:21.758Z,19.82
2022-08-10T00:06:52.506Z,19.75
2022-08-10T00:09:20.582Z,19.67
2022-08-10T00:11:48.548Z,19.62
2022-08-10T00:14:16.867Z,19.59
2022-08-10T00:16:44.975Z,19.55
2022-08-10T00:19:13.151Z,19.51
2022-08-10T00:21:46.518Z,19.46
2022-08-10T00:24:16.250Z,19.43
2022-08-10T00:27:52.145Z,19.42
2022-08-10T00:29:32.501Z,19.42
2022-08-10T00:32:00.519Z,19.43
2022-08-10T00:34:28.910Z,19.45
2022-08-10T00:36:57.154Z,19.50
2022-08-10T00:39:26.995Z,19.53
2022-08-10T00:42:02.169Z,19.55
2022-08-10T00:44:36.513Z,19.55
2022-08-10T00:47:04.800Z,19.55
2022-08-10T00:49:33.061Z,19.53
2022-08-10T00:52:01.045Z,19.53
2022-08-10T00:54:30.593Z,19.51
2022-08-10T00:57:16.473Z,19.50
2022-08-10T00:59:58.446Z,19.47
2022-08-10T01:02:29.195Z,19.45
2022-08-10T01:05:01.333Z,19.45
2022-08-10T01:07:43.228Z,19.41
2022-08-10T01:10:24.114Z,19.40
2022-08-10T01:12:57.937Z,19.36
2022-08-10T01:15:30.454Z,19.33
2022-08-10T01:18:05.018Z,19.30
2022-08-10T01:20:39.683Z,19.27
2022-08-10T01:23:56.398Z,19.24
2022-08-10T01:26:44.155Z,19.18
2022-08-10T01:29:45.266Z,19.12
2022-08-10T01:32:18.659Z,19.05
2022-08-10T01:34:52.840Z,19.00
2022-08-10T01:37:26.166Z,18.97
2022-08-10T01:39:58.703Z,18.93
2022-08-10T01:42:29.577Z,18.89
2022-08-10T01:45:00.730Z,18.84
2022-08-10T01:47:52.833Z,18.81
2022-08-10T01:50:27.027Z,18.78
2022-08-10T01:52:59.846Z,18.77
2022-08-10T01:55:29.206Z,18.73
2022-08-10T01:57:59.867Z,18.70
2022-08-10T02:00:31.145Z,18.65
2022-08-10T02:03:02.949Z,18.61
2022-08-10T02:05:34.182Z,18.59
2022-08-10T02:08:05.799Z,18.55
2022-08-10T02:10:36.395Z,18.53
2022-08-10T02:13:05.459Z,18.51
2022-08-10T02:15:35.691Z,18.51
2022-08-10T02:18:07.558Z,18.53
2022-08-10T02:20:38.864Z,18.54
2022-08-10T02:23:10.629Z,18.53
2022-08-10T02:25:43.665Z,18.53
2022-08-10T02:28:30.621Z,18.52
2022-08-10T02:31:02.802Z,18.52
2022-08-10T02:33:36.990Z,18.53
2022-08-10T02:36:07.593Z,18.51
2022-08-10T02:38:59.181Z,18.48
2022-08-10T02:45:12.666Z,18.45
2022-08-10T02:45:21.099Z,18.41
2022-08-10T02:47:21.759Z,18.37
2022-08-10T02:49:57.441Z,18.34
2022-08-10T02:52:36.471Z,18.32
2022-08-10T02:55:17.765Z,18.30
2022-08-10T02:58:13.327Z,18.29
2022-08-10T03:00:45.851Z,18.27
2022-08-10T03:03:20.120Z,18.24
2022-08-10T03:05:54.917Z,18.21
2022-08-10T03:08:27.399Z,18.18
2022-08-10T03:10:57.611Z,18.15
2022-08-10T03:13:26.178Z,18.13
2022-08-10T03:15:55.739Z,18.11
2022-08-10T03:18:25.665Z,18.09
2022-08-10T03:20:57.378Z,18.07
2022-08-10T03:23:28.196Z,18.06
2022-08-10T03:25:58.935Z,18.03
2022-08-10T03:28:30.393Z,18.01
2022-08-10T03:31:00.274Z,17.99
2022-08-10T03:33:31.192Z,17.97
2022-08-10T03:36:43.072Z,17.95
2022-08-10T03:38:51.872Z,17.94
2022-08-10T03:41:24.716Z,17.91
2022-08-10T03:43:54.313Z,17.90
2022-08-10T03:46:25.883Z,17.88
2022-08-10T03:48:57.010Z,17.85
2022-08-10T03:51:28.682Z,17.82
2022-08-10T03:54:05.248Z,17.79
2022-08-10T03:56:39.839Z,17.77
2022-08-10T03:59:09.694Z,17.76
2022-08-10T04:02:44.421Z,17.75
2022-08-10T04:04:26.331Z,17.75
2022-08-10T04:06:57.426Z,17.72
2022-08-10T04:09:29.646Z,17.70
2022-08-10T04:12:11.608Z,17.69
2022-08-10T04:14:49.420Z,17.67
2022-08-10T04:18:03.038Z,17.66
2022-08-10T04:20:13.054Z,17.62
2022-08-10T04:22:44.837Z,17.58
2022-08-10T04:25:13.978Z,17.55
2022-08-10T04:27:42.598Z,17.53
2022-08-10T04:30:11.895Z,17.49
2022-08-10T04:32:42.531Z,17.46
2022-08-10T04:35:12.139Z,17.43
2022-08-10T04:37:47.132Z,17.43
2022-08-10T04:40:29.760Z,17.42
2022-08-10T04:43:11.268Z,17.42
2022-08-10T04:45:48.612Z,17.41
2022-08-10T04:48:43.016Z,17.37
2022-08-10T04:51:11.171Z,17.35
2022-08-10T04:54:05.411Z,17.33
2022-08-10T04:56:36.633Z,17.30
2022-08-10T04:59:06.284Z,17.28
2022-08-10T05:01:37.811Z,17.28
2022-08-10T05:04:35.447Z,17.30
2022-08-10T05:07:08.608Z,17.30
2022-08-10T05:10:02.511Z,17.30
2022-08-10T05:12:26.401Z,17.30
2022-08-10T05:14:54.951Z,17.28
2022-08-10T05:17:23.971Z,17.28
2022-08-10T05:20:04.770Z,17.28
2022-08-10T05:22:38.325Z,17.28
2022-08-10T05:25:08.821Z,17.29
2022-08-10T05:27:38.519Z,17.30
2022-08-10T05:30:08.205Z,17.31
2022-08-10T05:32:56.273Z,17.32
2022-08-10T05:35:25.877Z,17.32
2022-08-10T05:38:09.384Z,17.32
2022-08-10T05:40:46.435Z,17.31
2022-08-10T05:43:18.691Z,17.28
2022-08-10T05:46:16.705Z,17.27
2022-08-10T05:48:54.952Z,17.27
2022-08-10T05:51:24.023Z,17.26
2022-08-10T05:54:02.199Z,17.26
2022-08-10T05:56:56.710Z,17.28
2022-08-10T06:00:32.814Z,17.30
2022-08-10T06:02:32.001Z,17.32
2022-08-10T06:05:07.574Z,17.35
2022-08-10T06:07:38.846Z,17.37
2022-08-10T06:10:10.679Z,17.41
2022-08-10T06:12:53.556Z,17.45
2022-08-10T06:15:52.253Z,17.48
2022-08-10T06:18:15.454Z,17.52
2022-08-10T06:20:44.039Z,17.55
2022-08-10T06:23:13.555Z,17.57
2022-08-10T06:26:11.333Z,17.57
2022-08-10T06:28:34.172Z,17.57
2022-08-10T06:31:05.514Z,17.57
2022-08-10T06:33:36.697Z,17.58
2022-08-10T06:36:07.143Z,17.60
2022-08-10T06:38:37.311Z,17.62
2022-08-10T06:41:18.012Z,17.66
2022-08-10T06:43:57.727Z,17.70
2022-08-10T06:46:29.176Z,17.72
2022-08-10T06:49:01.305Z,17.76
2022-08-10T06:51:33.223Z,17.78
2022-08-10T06:54:04.189Z,17.81
2022-08-10T06:56:37.668Z,17.84
2022-08-10T06:59:13.231Z,17.89
2022-08-10T07:01:58.663Z,17.95
2022-08-10T07:04:32.726Z,18.00
2022-08-10T07:07:05.309Z,18.06
2022-08-10T07:09:36.466Z,18.14
2022-08-10T07:12:09.163Z,18.20
2022-08-10T07:14:42.114Z,18.26
2022-08-10T07:17:15.891Z,18.33
2022-08-10T07:19:49.828Z,18.40
2022-08-10T07:23:08.120Z,18.48
2022-08-10T07:25:13.262Z,18.57
2022-08-10T07:27:58.751Z,18.64
2022-08-10T07:30:30.059Z,18.69
2022-08-10T07:33:01.461Z,18.77
2022-08-10T07:35:37.071Z,18.83
2022-08-10T07:38:14.101Z,18.90
2022-08-10T07:40:43.538Z,18.97
2022-08-10T07:43:13.899Z,19.05
2022-08-10T07:45:42.403Z,19.12
2022-08-10T07:48:16.991Z,19.20
2022-08-10T07:50:47.217Z,19.25
2022-08-10T07:53:21.991Z,19.33
2022-08-10T07:56:05.007Z,19.42
2022-08-10T07:58:49.981Z,19.51
2022-08-10T08:01:23.546Z,19.60
2022-08-10T08:04:10.742Z,19.70
2022-08-10T08:06:41.418Z,19.83
2022-08-10T08:09:10.301Z,19.93
2022-08-10T08:11:40.808Z,20.04
2022-08-10T08:14:10.206Z,20.14
2022-08-10T08:16:41.320Z,20.23
2022-08-10T08:19:28.555Z,20.34
2022-08-10T08:24:10.407Z,20.47
2022-08-10T08:24:53.178Z,20.58
2022-08-10T08:27:22.172Z,20.68
2022-08-10T08:29:51.883Z,20.79
2022-08-10T08:32:23.375Z,20.90
2022-08-10T08:34:56.995Z,21.03
2022-08-10T08:38:29.623Z,21.17
2022-08-10T08:40:22.454Z,21.29
2022-08-10T08:43:31.410Z,21.45
2022-08-10T08:46:19.697Z,21.60
2022-08-10T08:49:01.837Z,21.77
2022-08-10T08:52:12.441Z,21.98
2022-08-10T08:54:40.241Z,22.19
2022-08-10T08:57:46.300Z,22.36
2022-08-10T09:00:15.009Z,22.52
2022-08-10T09:03:04.097Z,22.64
2022-08-10T09:05:58.792Z,22.75
2022-08-10T09:09:04.871Z,22.88
2022-08-10T09:11:49.963Z,23.01
2022-08-10T09:14:26.116Z,23.09
2022-08-10T09:17:04.660Z,23.22
2022-08-10T09:19:38.550Z,23.35
2022-08-10T09:22:18.148Z,23.45
2022-08-10T09:24:55.431Z,23.55
2022-08-10T09:27:43.369Z,23.64
2022-08-10T09:30:16.294Z,23.70
2022-08-10T09:36:14.152Z,23.80
2022-08-10T09:36:20.172Z,23.91
2022-08-10T09:38:49.899Z,24.04
2022-08-10T09:41:30.052Z,24.15
2022-08-10T09:44:13.030Z,24.25
2022-08-10T09:47:06.184Z,24.35
2022-08-10T09:49:57.055Z,24.42
2022-08-10T09:52:38.262Z,24.52
2022-08-10T09:55:14.272Z,24.63
2022-08-10T09:57:56.837Z,24.69
2022-08-10T10:00:35.649Z,24.75
2022-08-10T10:03:13.504Z,24.82
2022-08-10T10:05:52.695Z,24.92
2022-08-10T10:08:33.514Z,25.00
2022-08-10T10:11:13.148Z,25.06
2022-08-10T10:14:03.010Z,25.12
2022-08-10T10:16:47.491Z,25.18
2022-08-10T10:19:31.173Z,25.25
2022-08-10T10:22:14.248Z,25.30
2022-08-10T10:24:52.047Z,25.34
2022-08-10T10:27:27.900Z,25.39
2022-08-10T10:30:04.113Z,25.49
2022-08-10T10:32:46.069Z,25.59
2022-08-10T10:35:22.527Z,25.65
2022-08-10T10:38:01.025Z,25.68
2022-08-10T10:40:39.295Z,25.73
2022-08-10T10:43:19.637Z,25.78
2022-08-10T10:45:58.851Z,25.82
2022-08-10T10:48:39.950Z,25.90
2022-08-10T10:51:16.030Z,25.95
2022-08-10T10:53:50.863Z,26.01
2022-08-10T10:56:27.333Z,26.09
2022-08-10T10:59:16.042Z,26.16
2022-08-10T11:02:02.747Z,26.23
2022-08-10T11:04:41.146Z,26.31
2022-08-10T11:07:17.207Z,26.34
2022-08-10T11:10:05.481Z,26.40
2022-08-10T11:12:57.062Z,26.47
2022-08-10T11:15:42.676Z,26.57
2022-08-10T11:18:23.558Z,26.69
2022-08-10T11:21:02.058Z,26.76
2022-08-10T11:23:37.800Z,26.83
2022-08-10T11:26:12.879Z,26.91
2022-08-10T11:28:46.273Z,27.01
2022-08-10T11:31:21.194Z,27.11
2022-08-10T11:34:46.776Z,27.19
2022-08-10T11:37:00.612Z,27.33
2022-08-10T11:39:49.669Z,27.44
2022-08-10T11:42:35.823Z,27.52
2022-08-10T11:45:11.373Z,27.65
2022-08-10T11:47:46.209Z,27.76
2022-08-10T11:50:21.155Z,27.86
2022-08-10T11:53:01.080Z,27.98
2022-08-10T11:55:33.518Z,28.11
2022-08-10T11:58:22.979Z,28.31
2022-08-10T12:00:52.334Z,28.54
2022-08-10T12:03:20.878Z,28.73
2022-08-10T12:05:54.708Z,28.91
2022-08-10T12:10:11.175Z,29.06
2022-08-10T12:11:24.764Z,29.18
2022-08-10T12:14:20.196Z,29.37
2022-08-10T12:16:51.279Z,29.61
2022-08-10T12:19:25.169Z,29.77
2022-08-10T12:22:05.774Z,29.97
2022-08-10T12:24:41.207Z,30.16
2022-08-10T12:27:15.554Z,30.29
2022-08-10T12:29:47.576Z,30.35
2022-08-10T12:32:25.433Z,30.49
2022-08-10T12:34:58.219Z,30.67
2022-08-10T12:37:34.755Z,30.84
2022-08-10T12:40:34.319Z,30.98
2022-08-10T12:44:03.838Z,31.18
2022-08-10T12:46:06.755Z,31.41
2022-08-10T12:48:38.908Z,31.60
2022-08-10T12:51:14.575Z,31.76
2022-08-10T12:53:54.295Z,31.89
2022-08-10T12:56:27.171Z,31.97
2022-08-10T12:59:01.110Z,32.11
2022-08-10T13:02:07.438Z,32.15
2022-08-10T13:04:28.371Z,32.29
2022-08-10T13:06:58.319Z,32.36
2022-08-10T13:09:27.271Z,32.47
2022-08-10T13:12:36.969Z,32.66
2022-08-10T13:14:54.323Z,32.72
2022-08-10T13:17:38.658Z,32.76
2022-08-10T13:20:17.267Z,32.81
2022-08-10T13:22:48.515Z,32.86
2022-08-10T13:25:21.529Z,32.99
2022-08-10T13:28:00.713Z,33.06
2022-08-10T13:30:41.778Z,33.14
2022-08-10T13:33:12.238Z,33.23
2022-08-10T13:35:41.115Z,33.32
2022-08-10T13:38:11.428Z,33.37
2022-08-10T13:40:40.213Z,33.43
2022-08-10T13:43:11.425Z,33.57
2022-08-10T13:45:49.245Z,33.71
2022-08-10T13:48:21.605Z,33.78
2022-08-10T13:50:51.819Z,33.86
2022-08-10T13:53:21.608Z,33.95
2022-08-10T13:55:56.188Z,34.05
2022-08-10T13:58:30.154Z,34.10
2022-08-10T14:01:00.760Z,34.21
2022-08-10T14:03:30.205Z,34.29
2022-08-10T14:05:59.610Z,34.42
2022-08-10T14:08:30.421Z,34.37
2022-08-10T14:11:11.050Z,34.32
2022-08-10T14:13:46.695Z,34.37
2022-08-10T14:16:14.962Z,34.32
2022-08-10T14:18:45.923Z,34.30
2022-08-10T14:21:14.919Z,34.34
2022-08-10T14:23:51.864Z,34.37
2022-08-10T14:26:24.565Z,34.50
2022-08-10T14:28:57.339Z,34.67
2022-08-10T14:31:33.652Z,34.84
2022-08-10T14:34:04.912Z,34.98
2022-08-10T14:36:42.027Z,35.12
2022-08-10T14:39:16.000Z,35.19
2022-08-10T14:42:01.223Z,35.26
2022-08-10T14:44:44.972Z,35.24
2022-08-10T14:47:53.597Z,35.17
2022-08-10T14:50:05.886Z,35.24
2022-08-10T14:52:44.339Z,35.31
2022-08-10T14:55:19.439Z,35.25
2022-08-10T14:58:16.172Z,35.19
2022-08-10T15:00:43.120Z,35.19
2022-08-10T15:03:59.491Z,35.23
2022-08-10T15:06:18.045Z,35.33
2022-08-10T15:08:47.843Z,35.32
2022-08-10T15:12:13.732Z,35.38
2022-08-10T15:14:29.258Z,35.45
2022-08-10T15:16:58.684Z,35.50
2022-08-10T15:20:01.032Z,35.58
2022-08-10T15:22:37.257Z,35.60
2022-08-10T15:25:19.370Z,35.60
2022-08-10T15:27:56.684Z,35.65
2022-08-10T15:30:31.567Z,35.62
2022-08-10T15:34:03.202Z,35.68
2022-08-10T15:36:43.849Z,35.80
2022-08-10T15:40:22.478Z,35.94
2022-08-10T15:42:21.759Z,35.83
2022-08-10T15:44:53.573Z,35.72
2022-08-10T15:47:25.087Z,35.79
2022-08-10T15:50:03.198Z,36.01
2022-08-10T15:52:39.948Z,36.18
2022-08-10T15:55:43.915Z,36.32
2022-08-10T15:58:20.061Z,36.39
2022-08-10T16:02:15.063Z,36.56
2022-08-10T16:04:08.329Z,36.70
2022-08-10T16:06:44.866Z,36.81
2022-08-10T16:10:23.093Z,36.95
2022-08-10T16:12:15.852Z,37.03
2022-08-10T16:14:48.559Z,37.07
2022-08-10T16:17:18.983Z,37.19
2022-08-10T16:19:50.977Z,37.33
2022-08-10T16:22:36.466Z,37.39
2022-08-10T16:25:13.225Z,37.43
2022-08-10T16:27:42.868Z,37.50
2022-08-10T16:30:11.504Z,37.53
2022-08-10T16:32:42.163Z,37.63
2022-08-10T16:35:18.707Z,37.65
2022-08-10T16:37:59.033Z,37.56
2022-08-10T16:40:28.933Z,37.55
2022-08-10T16:42:58.702Z,37.59
2022-08-10T16:45:34.720Z,37.69
2022-08-10T16:48:05.506Z,37.73
2022-08-10T16:50:36.607Z,37.81
2022-08-10T16:53:09.018Z,37.88
2022-08-10T16:55:49.719Z,37.93
2022-08-10T16:58:21.642Z,37.98
2022-08-10T17:00:51.723Z,38.10
2022-08-10T17:04:08.195Z,38.18
2022-08-10T17:06:22.055Z,38.31
2022-08-10T17:08:54.950Z,38.40
2022-08-10T17:11:28.408Z,38.39
2022-08-10T17:13:58.104Z,38.40
2022-08-10T17:16:29.472Z,38.41
2022-08-10T17:18:58.468Z,38.43
2022-08-10T17:21:31.451Z,38.46
2022-08-10T17:24:03.963Z,38.44
2022-08-10T17:26:37.421Z,38.45
2022-08-10T17:29:53.595Z,38.36
2022-08-10T17:32:06.539Z,38.39
2022-08-10T17:34:38.149Z,38.53
2022-08-10T17:37:14.442Z,38.56
2022-08-10T17:39:48.273Z,38.61
2022-08-10T17:42:21.721Z,38.60
2022-08-10T17:44:52.140Z,38.64
2022-08-10T17:47:22.005Z,38.68
2022-08-10T17:49:55.376Z,38.71
2022-08-10T17:52:28.871Z,38.78
2022-08-10T17:55:02.339Z,38.80
2022-08-10T17:57:35.988Z,38.77
2022-08-10T18:00:06.811Z,38.86
2022-08-10T18:02:40.286Z,38.89
2022-08-10T18:05:11.196Z,38.81
2022-08-10T18:07:45.039Z,38.62
2022-08-10T18:10:18.215Z,38.58
2022-08-10T18:12:48.586Z,38.55
2022-08-10T18:15:22.016Z,38.51
2022-08-10T18:17:59.066Z,38.37
2022-08-10T18:20:34.140Z,37.83
2022-08-10T18:23:02.652Z,37.02
2022-08-10T18:25:36.206Z,36.18
2022-08-10T18:28:06.599Z,35.40
2022-08-10T18:30:45.522Z,34.72
2022-08-10T18:33:16.074Z,34.12
2022-08-10T18:35:46.226Z,33.64
2022-08-10T18:38:16.109Z,33.17
2022-08-10T18:40:53.858Z,32.74
2022-08-10T18:44:06.075Z,32.36
2022-08-10T18:46:23.393Z,31.96
2022-08-10T18:48:55.231Z,31.65
2022-08-10T18:51:26.603Z,31.40
2022-08-10T18:54:00.511Z,31.15
2022-08-10T18:56:55.145Z,30.90
2022-08-10T19:00:07.922Z,30.64
2022-08-10T19:02:50.893Z,30.33
2022-08-10T19:05:36.468Z,30.06
2022-08-10T19:08:30.509Z,29.80
2022-08-10T19:11:04.172Z,29.55
2022-08-10T19:13:50.679Z,29.34
2022-08-10T19:16:30.291Z,29.10
2022-08-10T19:19:22.259Z,28.89
2022-08-10T19:21:59.466Z,28.67
2022-08-10T19:24:36.076Z,28.47
2022-08-10T19:27:12.855Z,28.29
2022-08-10T19:30:12.418Z,28.13
2022-08-10T19:32:56.031Z,27.97
2022-08-10T19:35:35.449Z,27.85
2022-08-10T19:38:33.085Z,27.72
2022-08-10T19:41:17.849Z,27.60
2022-08-10T19:44:00.494Z,27.50
2022-08-10T19:46:40.599Z,27.40
2022-08-10T19:49:18.667Z,27.30
2022-08-10T19:51:56.769Z,27.17
2022-08-10T19:54:32.638Z,27.07
2022-08-10T19:57:10.503Z,26.98
2022-08-10T20:00:17.140Z,26.89
2022-08-10T20:02:50.378Z,26.75
2022-08-10T20:05:28.412Z,26.65
2022-08-10T20:08:03.746Z,26.58
2022-08-10T20:10:38.767Z,26.49
2022-08-10T20:13:13.854Z,26.42
2022-08-10T20:15:47.551Z,26.33
2022-08-10T20:18:24.474Z,26.26
2022-08-10T20:21:00.076Z,26.19
2022-08-10T20:23:34.133Z,26.14
2022-08-10T20:26:09.518Z,26.10
2022-08-10T20:28:43.441Z,26.08
2022-08-10T20:31:17.570Z,26.03
2022-08-10T20:34:00.923Z,25.99
2022-08-10T20:36:33.832Z,25.96
2022-08-10T20:39:13.166Z,25.92
2022-08-10T20:41:56.100Z,25.86
2022-08-10T20:44:35.900Z,25.79
2022-08-10T20:47:12.105Z,25.78
2022-08-10T20:49:49.570Z,25.75
2022-08-10T20:52:17.678Z,25.72
2022-08-10T20:54:50.946Z,25.71
2022-08-10T20:57:54.412Z,25.67
2022-08-10T21:00:23.290Z,25.63
2022-08-10T21:03:06.924Z,25.60
2022-08-10T21:05:52.919Z,25.57
2022-08-10T21:08:34.484Z,25.50
2022-08-10T21:11:08.476Z,25.44
2022-08-10T21:13:58.939Z,25.40
2022-08-10T21:16:41.433Z,25.31
2022-08-10T21:19:54.008Z,25.26
2022-08-10T21:22:29.343Z,25.17
2022-08-10T21:25:02.800Z,25.13
2022-08-10T21:27:49.266Z,25.08
2022-08-10T21:30:37.953Z,25.01
2022-08-10T21:33:12.031Z,24.95
2022-08-10T21:35:44.899Z,24.91
2022-08-10T21:38:24.424Z,24.85
2022-08-10T21:41:58.436Z,24.80
2022-08-10T21:45:07.693Z,24.73
2022-08-10T21:48:16.656Z,24.65
2022-08-10T21:51:09.699Z,24.59
2022-08-10T21:54:08.739Z,24.53
2022-08-10T21:57:00.125Z,24.45
2022-08-10T21:59:56.177Z,24.40
2022-08-10T22:02:50.031Z,24.34
2022-08-10T22:05:42.576Z,24.27
2022-08-10T22:08:31.476Z,24.20
2022-08-10T22:11:21.656Z,24.16
2022-08-10T22:14:09.358Z,24.12
2022-08-10T22:17:02.873Z,24.06
2022-08-10T22:19:51.585Z,24.01
2022-08-10T22:22:56.099Z,23.97
2022-08-10T22:25:55.976Z,23.91
2022-08-10T22:28:48.714Z,23.86
2022-08-10T22:31:50.636Z,23.84
2022-08-10T22:34:58.127Z,23.81
2022-08-10T22:37:56.299Z,23.74
2022-08-10T22:40:43.020Z,23.68
2022-08-10T22:43:38.282Z,23.62
2022-08-10T22:46:40.087Z,23.57
2022-08-10T22:49:07.841Z,23.52
2022-08-10T22:51:52.128Z,23.47
2022-08-10T22:54:45.016Z,23.43
2022-08-10T22:57:32.926Z,23.40
2022-08-10T23:00:10.793Z,23.37
2022-08-10T23:02:41.058Z,23.34
2022-08-10T23:05:14.167Z,23.28
2022-08-10T23:07:48.587Z,23.22
2022-08-10T23:10:19.775Z,23.17
2022-08-10T23:12:51.003Z,23.11
2022-08-10T23:15:41.230Z,23.05
2022-08-10T23:18:33.185Z,22.99
2022-08-10T23:21:02.431Z,22.91
2022-08-10T23:23:37.858Z,22.84
2022-08-10T23:26:07.352Z,22.79
2022-08-10T23:37:56.827Z,22.72
2022-08-10T23:40:26.967Z,22.64
2022-08-10T23:42:57.593Z,22.59
2022-08-10T23:45:52.282Z,22.56
2022-08-10T23:48:21.187Z,22.49
2022-08-10T23:50:53.340Z,22.45
2022-08-10T23:53:30.068Z,22.42
2022-08-10T23:56:09.497Z,22.39
2022-08-10T23:58:43.112Z,22.38
